Hauptseite
METAR-TAF:

METAR-TAF

Flughäfen :

Flughafen Assuan

Assuan, Ägypten

Breite: 23-58N, Länge: 032-47E, Höhe: 200 m

Beobachtung

Neuester Wetterbericht von vor 1 Stunde und 25 Minuten, um 13:00 UTC
Wind 8 kt aus Südost
Temperatur 41°C
Luftfeuchtigkeit 6%
Luftdruck 1007 hPa
Sichtweite 10 km oder mehr
keine Wolken unter 1500 m und keine Kumulonimbus oder Gewitterwolken

METAR: HESN 231300Z 13008KT CAVOK 41/M03 Q1007 NOSIG

Zeit: 16:25 (14:25 UTC)

Prognose

Neuester Wetterbericht von vor 3 Stunden und 25 Minuten, um 11:00 UTC
Gültige Prognose vom 23 um 12 UTC bis 24 um 18 UTC
Wind 15 kt aus Nord
Sichtweite: 8000 m
Zeitweise
vom 23 um 12 UTC bis 23 um 16 UTC
Sichtweite: 4000 m
Sand,

TAF: HESN 231100Z 2312/2418 36015KT 8000 NSC TEMPO 2312/2316 4000 SA

Wetterbeobachtungen und Prognosen von mehr als 4000 Flughäfen (METAR und TAF Bericht).

Die verfügbaren Stationen werden durch gelbe und rote Markierungen auf der Karte dargestellt.

Führen Sie die Maus auf sie, um den Namen der Station zu sehen.

Darauf klicken, um die Beobachtung von Wetterbeobachtungen und Prognosen zu sehen.

Um die Karte zu ändern : klicken Sie auf den grünen Tasten mit einem schwarzen Kreuz Zum Vergrößern, auf den grünen Button mit einem Gedankenstrich zu verkleinern, oder auf die grünen Pfeile für benachbarte Karten.


METAR-TAF: